To NAV CANADA Home Page Login to a new session Search on AWWS site Feedback and Comments Disclaimer Vers la page française équivalente Tips FAQ What's new on the site To the Forecasts and Observations / NOTAM section To "File a Flight Plan" website Publications and other links Update of the User's profile FIC Telephone Numbers My Weather Data Folder Route Weather Data Regional Weather Data Local Weather Data To the Forecasts and Observations / NOTAM section
Request Generated 10/17/2017 at 01:46:28 UTC . Weather information available at that time is displayed.

METAR/TAF

MONT-JOLI/QC    

METAR CYYY 170100Z 31005KT 15SM OVC065 04/00 A3004 RMK SC8 SLP177=
METAR CYYY 170000Z 32005KT 15SM OVC065 05/M01 A3004 RMK SC8 SLP175=
METAR CYYY 162300Z 34006KT 15SM OVC060 05/M00 A3003 RMK SC8 SLP173=

TAF CYYY 170138Z 1702/1714 31005KT P6SM OVC060
FM170700 32008KT P6SM FEW060
FM171200 23010KT P6SM SKC
RMK NXT FCST BY 170800Z=
Your time UTC time
Weather data provided by Environment Canada and NAV CANADA